sensor_id;sensor_type;location;lat;lon;timestamp;P1;durP1;ratioP1;P2;durP2;ratioP2
25231;SDS011;13176;51.140;6.290;2023-01-25T00:01:38;22.30;;;20.20;;
25231;SDS011;13176;51.140;6.290;2023-01-25T00:04:04;21.17;;;19.25;;
25231;SDS011;13176;51.140;6.290;2023-01-25T00:06:31;22.10;;;19.90;;
25231;SDS011;13176;51.140;6.290;2023-01-25T00:08:57;20.92;;;18.83;;
25231;SDS011;13176;51.140;6.290;2023-01-25T00:11:23;21.02;;;18.92;;
25231;SDS011;13176;51.140;6.290;2023-01-25T00:13:52;20.35;;;18.35;;
25231;SDS011;13176;51.140;6.290;2023-01-25T00:16:19;26.77;;;19.58;;
25231;SDS011;13176;51.140;6.290;2023-01-25T00:18:46;21.20;;;19.20;;
25231;SDS011;13176;51.140;6.290;2023-01-25T00:21:14;22.75;;;19.08;;
25231;SDS011;13176;51.140;6.290;2023-01-25T00:23:42;22.83;;;20.63;;
25231;SDS011;13176;51.140;6.290;2023-01-25T00:26:09;22.42;;;20.23;;
25231;SDS011;13176;51.140;6.290;2023-01-25T00:28:36;23.58;;;21.13;;
25231;SDS011;13176;51.140;6.290;2023-01-25T00:31:03;23.67;;;21.38;;
25231;SDS011;13176;51.140;6.290;2023-01-25T00:36:25;22.83;;;20.52;;
25231;SDS011;13176;51.140;6.290;2023-01-25T00:38:57;22.42;;;20.17;;
25231;SDS011;13176;51.140;6.290;2023-01-25T00:41:23;21.60;;;19.60;;
25231;SDS011;13176;51.140;6.290;2023-01-25T00:43:50;22.08;;;19.88;;
25231;SDS011;13176;51.140;6.290;2023-01-25T00:46:16;21.60;;;19.40;;
25231;SDS011;13176;51.140;6.290;2023-01-25T00:48:44;21.92;;;19.67;;
25231;SDS011;13176;51.140;6.290;2023-01-25T00:51:10;20.90;;;18.80;;
25231;SDS011;13176;51.140;6.290;2023-01-25T00:53:36;21.40;;;19.30;;
25231;SDS011;13176;51.140;6.290;2023-01-25T00:56:03;20.65;;;18.58;;
25231;SDS011;13176;51.140;6.290;2023-01-25T00:58:30;21.70;;;19.42;;
25231;SDS011;13176;51.140;6.290;2023-01-25T01:00:56;21.58;;;19.48;;
25231;SDS011;13176;51.140;6.290;2023-01-25T01:03:23;21.58;;;19.48;;
25231;SDS011;13176;51.140;6.290;2023-01-25T01:06:03;22.48;;;20.30;;
25231;SDS011;13176;51.140;6.290;2023-01-25T01:08:35;20.67;;;18.67;;
25231;SDS011;13176;51.140;6.290;2023-01-25T01:11:05;22.40;;;20.10;;
25231;SDS011;13176;51.140;6.290;2023-01-25T01:13:33;20.52;;;18.45;;
25231;SDS011;13176;51.140;6.290;2023-01-25T01:16:01;20.95;;;18.92;;
25231;SDS011;13176;51.140;6.290;2023-01-25T01:18:32;22.83;;;20.50;;
25231;SDS011;13176;51.140;6.290;2023-01-25T01:21:00;22.05;;;19.80;;
25231;SDS011;13176;51.140;6.290;2023-01-25T01:23:27;22.20;;;20.00;;
25231;SDS011;13176;51.140;6.290;2023-01-25T01:26:00;21.60;;;19.50;;
25231;SDS011;13176;51.140;6.290;2023-01-25T01:28:31;21.60;;;19.42;;
25231;SDS011;13176;51.140;6.290;2023-01-25T01:30:59;21.77;;;19.70;;
25231;SDS011;13176;51.140;6.290;2023-01-25T01:33:26;21.48;;;19.27;;
25231;SDS011;13176;51.140;6.290;2023-01-25T01:35:52;20.15;;;18.15;;
25231;SDS011;13176;51.140;6.290;2023-01-25T01:38:19;20.08;;;18.15;;
25231;SDS011;13176;51.140;6.290;2023-01-25T01:40:46;20.88;;;18.88;;
25231;SDS011;13176;51.140;6.290;2023-01-25T01:43:17;21.38;;;19.23;;
25231;SDS011;13176;51.140;6.290;2023-01-25T01:50:45;21.85;;;19.55;;
25231;SDS011;13176;51.140;6.290;2023-01-25T01:53:15;21.10;;;19.10;;
25231;SDS011;13176;51.140;6.290;2023-01-25T01:55:42;21.55;;;19.35;;
25231;SDS011;13176;51.140;6.290;2023-01-25T01:58:09;21.42;;;19.35;;
25231;SDS011;13176;51.140;6.290;2023-01-25T02:00:36;22.45;;;19.83;;
25231;SDS011;13176;51.140;6.290;2023-01-25T02:03:06;21.52;;;19.48;;
25231;SDS011;13176;51.140;6.290;2023-01-25T02:06:40;22.92;;;20.70;;
25231;SDS011;13176;51.140;6.290;2023-01-25T02:08:37;22.25;;;20.05;;
25231;SDS011;13176;51.140;6.290;2023-01-25T02:11:05;23.45;;;20.23;;
25231;SDS011;13176;51.140;6.290;2023-01-25T02:13:33;23.75;;;21.42;;
25231;SDS011;13176;51.140;6.290;2023-01-25T02:16:02;23.52;;;21.10;;
25231;SDS011;13176;51.140;6.290;2023-01-25T02:18:29;24.98;;;20.85;;
25231;SDS011;13176;51.140;6.290;2023-01-25T02:20:56;23.80;;;21.30;;
25231;SDS011;13176;51.140;6.290;2023-01-25T02:23:36;22.48;;;20.13;;
25231;SDS011;13176;51.140;6.290;2023-01-25T02:26:13;21.70;;;19.60;;
25231;SDS011;13176;51.140;6.290;2023-01-25T02:28:42;24.27;;;21.77;;
25231;SDS011;13176;51.140;6.290;2023-01-25T02:31:13;22.58;;;20.20;;
25231;SDS011;13176;51.140;6.290;2023-01-25T02:33:39;23.20;;;20.85;;
25231;SDS011;13176;51.140;6.290;2023-01-25T02:38:33;23.88;;;21.50;;
25231;SDS011;13176;51.140;6.290;2023-01-25T02:41:03;23.92;;;21.52;;
25231;SDS011;13176;51.140;6.290;2023-01-25T02:43:34;23.17;;;20.90;;
25231;SDS011;13176;51.140;6.290;2023-01-25T02:46:09;22.27;;;20.13;;
25231;SDS011;13176;51.140;6.290;2023-01-25T02:48:45;25.00;;;22.45;;
25231;SDS011;13176;51.140;6.290;2023-01-25T02:51:12;22.38;;;20.08;;
25231;SDS011;13176;51.140;6.290;2023-01-25T02:53:38;23.45;;;21.00;;
25231;SDS011;13176;51.140;6.290;2023-01-25T02:56:05;22.60;;;20.25;;
25231;SDS011;13176;51.140;6.290;2023-01-25T02:58:33;22.00;;;19.73;;
25231;SDS011;13176;51.140;6.290;2023-01-25T03:00:59;22.42;;;20.23;;
25231;SDS011;13176;51.140;6.290;2023-01-25T03:03:25;23.13;;;20.83;;
25231;SDS011;13176;51.140;6.290;2023-01-25T03:05:52;22.77;;;20.17;;
25231;SDS011;13176;51.140;6.290;2023-01-25T03:08:18;22.75;;;20.45;;
25231;SDS011;13176;51.140;6.290;2023-01-25T03:10:44;22.00;;;19.83;;
25231;SDS011;13176;51.140;6.290;2023-01-25T03:13:11;23.50;;;21.00;;
25231;SDS011;13176;51.140;6.290;2023-01-25T03:15:37;22.48;;;20.27;;
25231;SDS011;13176;51.140;6.290;2023-01-25T03:18:04;22.92;;;20.55;;
25231;SDS011;13176;51.140;6.290;2023-01-25T03:20:30;23.38;;;20.67;;
25231;SDS011;13176;51.140;6.290;2023-01-25T03:22:56;25.13;;;22.60;;
25231;SDS011;13176;51.140;6.290;2023-01-25T03:25:23;23.08;;;20.77;;
25231;SDS011;13176;51.140;6.290;2023-01-25T03:27:49;22.98;;;20.50;;
25231;SDS011;13176;51.140;6.290;2023-01-25T03:30:15;24.63;;;22.13;;
25231;SDS011;13176;51.140;6.290;2023-01-25T03:32:42;25.33;;;22.52;;
25231;SDS011;13176;51.140;6.290;2023-01-25T03:35:08;23.60;;;21.10;;
25231;SDS011;13176;51.140;6.290;2023-01-25T03:37:35;24.83;;;22.23;;
25231;SDS011;13176;51.140;6.290;2023-01-25T03:40:02;24.95;;;22.45;;
25231;SDS011;13176;51.140;6.290;2023-01-25T03:42:28;24.55;;;22.00;;
25231;SDS011;13176;51.140;6.290;2023-01-25T03:44:55;24.90;;;22.33;;
25231;SDS011;13176;51.140;6.290;2023-01-25T03:47:21;25.20;;;22.58;;
25231;SDS011;13176;51.140;6.290;2023-01-25T03:49:47;26.23;;;23.52;;
25231;SDS011;13176;51.140;6.290;2023-01-25T03:52:14;27.17;;;23.42;;
25231;SDS011;13176;51.140;6.290;2023-01-25T03:54:40;26.42;;;23.75;;
25231;SDS011;13176;51.140;6.290;2023-01-25T03:57:06;25.15;;;22.48;;
25231;SDS011;13176;51.140;6.290;2023-01-25T03:59:33;26.58;;;23.90;;
25231;SDS011;13176;51.140;6.290;2023-01-25T04:01:59;26.50;;;23.65;;
25231;SDS011;13176;51.140;6.290;2023-01-25T04:04:25;25.80;;;21.40;;
25231;SDS011;13176;51.140;6.290;2023-01-25T04:06:52;23.92;;;21.48;;
25231;SDS011;13176;51.140;6.290;2023-01-25T04:09:18;24.98;;;22.40;;
25231;SDS011;13176;51.140;6.290;2023-01-25T04:11:47;24.80;;;22.33;;
25231;SDS011;13176;51.140;6.290;2023-01-25T04:14:14;26.92;;;22.65;;
25231;SDS011;13176;51.140;6.290;2023-01-25T04:16:41;27.05;;;23.42;;
25231;SDS011;13176;51.140;6.290;2023-01-25T04:19:07;26.50;;;23.70;;
25231;SDS011;13176;51.140;6.290;2023-01-25T04:21:34;26.55;;;23.40;;
25231;SDS011;13176;51.140;6.290;2023-01-25T04:24:00;25.73;;;22.95;;
25231;SDS011;13176;51.140;6.290;2023-01-25T04:26:26;26.70;;;22.38;;
25231;SDS011;13176;51.140;6.290;2023-01-25T04:28:53;26.02;;;23.33;;
25231;SDS011;13176;51.140;6.290;2023-01-25T04:31:19;24.65;;;22.10;;
25231;SDS011;13176;51.140;6.290;2023-01-25T04:33:46;25.73;;;23.05;;
25231;SDS011;13176;51.140;6.290;2023-01-25T04:36:13;29.35;;;23.00;;
25231;SDS011;13176;51.140;6.290;2023-01-25T04:38:39;25.40;;;22.63;;
25231;SDS011;13176;51.140;6.290;2023-01-25T04:41:07;26.45;;;21.67;;
25231;SDS011;13176;51.140;6.290;2023-01-25T04:43:34;27.70;;;23.58;;
25231;SDS011;13176;51.140;6.290;2023-01-25T04:46:01;25.67;;;22.70;;
25231;SDS011;13176;51.140;6.290;2023-01-25T04:48:28;25.95;;;22.75;;
25231;SDS011;13176;51.140;6.290;2023-01-25T04:50:54;27.60;;;24.00;;
25231;SDS011;13176;51.140;6.290;2023-01-25T04:53:21;28.05;;;25.05;;
25231;SDS011;13176;51.140;6.290;2023-01-25T04:55:47;27.63;;;24.67;;
25231;SDS011;13176;51.140;6.290;2023-01-25T04:58:14;27.65;;;23.70;;
25231;SDS011;13176;51.140;6.290;2023-01-25T05:00:40;25.38;;;22.65;;
25231;SDS011;13176;51.140;6.290;2023-01-25T05:03:07;26.52;;;22.73;;
25231;SDS011;13176;51.140;6.290;2023-01-25T05:05:33;26.73;;;23.55;;
25231;SDS011;13176;51.140;6.290;2023-01-25T05:08:00;27.42;;;24.35;;
25231;SDS011;13176;51.140;6.290;2023-01-25T05:10:26;26.35;;;23.45;;
25231;SDS011;13176;51.140;6.290;2023-01-25T05:12:52;26.50;;;22.13;;
25231;SDS011;13176;51.140;6.290;2023-01-25T05:15:19;31.00;;;23.35;;
25231;SDS011;13176;51.140;6.290;2023-01-25T05:17:45;35.13;;;23.25;;
25231;SDS011;13176;51.140;6.290;2023-01-25T05:20:12;26.90;;;23.55;;
25231;SDS011;13176;51.140;6.290;2023-01-25T05:22:38;30.60;;;23.67;;
25231;SDS011;13176;51.140;6.290;2023-01-25T05:25:04;26.88;;;21.95;;
25231;SDS011;13176;51.140;6.290;2023-01-25T05:27:51;26.58;;;23.77;;
25231;SDS011;13176;51.140;6.290;2023-01-25T05:30:17;27.33;;;24.23;;
25231;SDS011;13176;51.140;6.290;2023-01-25T05:32:44;25.83;;;23.08;;
25231;SDS011;13176;51.140;6.290;2023-01-25T05:35:10;31.40;;;23.92;;
25231;SDS011;13176;51.140;6.290;2023-01-25T05:37:37;28.08;;;23.20;;
25231;SDS011;13176;51.140;6.290;2023-01-25T05:40:03;26.65;;;23.83;;
25231;SDS011;13176;51.140;6.290;2023-01-25T05:42:30;26.90;;;23.75;;
25231;SDS011;13176;51.140;6.290;2023-01-25T05:44:57;25.10;;;22.40;;
25231;SDS011;13176;51.140;6.290;2023-01-25T05:47:23;25.75;;;23.05;;
25231;SDS011;13176;51.140;6.290;2023-01-25T05:49:50;27.40;;;23.17;;
25231;SDS011;13176;51.140;6.290;2023-01-25T05:52:16;26.17;;;23.50;;
25231;SDS011;13176;51.140;6.290;2023-01-25T05:54:43;26.77;;;22.95;;
25231;SDS011;13176;51.140;6.290;2023-01-25T05:57:09;26.00;;;23.17;;
25231;SDS011;13176;51.140;6.290;2023-01-25T05:59:36;26.88;;;22.45;;
25231;SDS011;13176;51.140;6.290;2023-01-25T06:02:02;28.30;;;24.23;;
25231;SDS011;13176;51.140;6.290;2023-01-25T06:04:28;26.83;;;23.92;;
25231;SDS011;13176;51.140;6.290;2023-01-25T06:06:55;29.25;;;22.75;;
25231;SDS011;13176;51.140;6.290;2023-01-25T06:09:21;27.45;;;24.15;;
25231;SDS011;13176;51.140;6.290;2023-01-25T06:11:48;28.23;;;24.40;;
25231;SDS011;13176;51.140;6.290;2023-01-25T06:14:15;28.08;;;23.95;;
25231;SDS011;13176;51.140;6.290;2023-01-25T06:16:41;25.60;;;21.48;;
25231;SDS011;13176;51.140;6.290;2023-01-25T06:19:07;24.63;;;22.00;;
25231;SDS011;13176;51.140;6.290;2023-01-25T06:21:34;27.42;;;23.38;;
25231;SDS011;13176;51.140;6.290;2023-01-25T06:24:04;26.75;;;23.58;;
25231;SDS011;13176;51.140;6.290;2023-01-25T06:26:30;25.08;;;22.42;;
25231;SDS011;13176;51.140;6.290;2023-01-25T06:28:57;24.88;;;22.20;;
25231;SDS011;13176;51.140;6.290;2023-01-25T06:31:23;27.48;;;23.23;;
25231;SDS011;13176;51.140;6.290;2023-01-25T06:33:50;25.45;;;22.67;;
25231;SDS011;13176;51.140;6.290;2023-01-25T06:36:17;25.75;;;22.83;;
25231;SDS011;13176;51.140;6.290;2023-01-25T06:38:49;29.33;;;23.88;;
25231;SDS011;13176;51.140;6.290;2023-01-25T06:41:16;28.20;;;23.15;;
25231;SDS011;13176;51.140;6.290;2023-01-25T06:43:44;25.38;;;22.67;;
25231;SDS011;13176;51.140;6.290;2023-01-25T06:46:11;29.33;;;24.10;;
25231;SDS011;13176;51.140;6.290;2023-01-25T06:48:38;29.15;;;24.33;;
25231;SDS011;13176;51.140;6.290;2023-01-25T06:51:06;26.00;;;23.05;;
25231;SDS011;13176;51.140;6.290;2023-01-25T06:53:35;26.17;;;23.38;;
25231;SDS011;13176;51.140;6.290;2023-01-25T06:56:05;26.70;;;23.80;;
25231;SDS011;13176;51.140;6.290;2023-01-25T06:58:35;30.52;;;23.63;;
25231;SDS011;13176;51.140;6.290;2023-01-25T07:01:15;27.10;;;24.20;;
25231;SDS011;13176;51.140;6.290;2023-01-25T07:03:53;26.50;;;22.63;;
25231;SDS011;13176;51.140;6.290;2023-01-25T07:06:21;25.60;;;22.85;;
25231;SDS011;13176;51.140;6.290;2023-01-25T07:08:48;29.77;;;24.50;;
25231;SDS011;13176;51.140;6.290;2023-01-25T07:11:15;27.10;;;23.55;;
25231;SDS011;13176;51.140;6.290;2023-01-25T07:13:44;25.42;;;22.75;;
25231;SDS011;13176;51.140;6.290;2023-01-25T07:16:13;27.65;;;24.50;;
25231;SDS011;13176;51.140;6.290;2023-01-25T07:18:41;27.98;;;24.40;;
25231;SDS011;13176;51.140;6.290;2023-01-25T07:21:18;26.92;;;23.95;;
25231;SDS011;13176;51.140;6.290;2023-01-25T07:23:46;28.98;;;24.58;;
25231;SDS011;13176;51.140;6.290;2023-01-25T07:28:47;26.75;;;21.58;;
25231;SDS011;13176;51.140;6.290;2023-01-25T07:31:15;30.75;;;24.48;;
25231;SDS011;13176;51.140;6.290;2023-01-25T07:33:43;30.33;;;24.50;;
25231;SDS011;13176;51.140;6.290;2023-01-25T07:36:13;28.92;;;24.02;;
25231;SDS011;13176;51.140;6.290;2023-01-25T07:38:40;28.17;;;24.20;;
25231;SDS011;13176;51.140;6.290;2023-01-25T07:41:06;31.20;;;25.63;;
25231;SDS011;13176;51.140;6.290;2023-01-25T07:43:33;32.83;;;26.73;;
25231;SDS011;13176;51.140;6.290;2023-01-25T07:46:00;30.35;;;25.67;;
25231;SDS011;13176;51.140;6.290;2023-01-25T07:48:28;28.90;;;24.48;;
25231;SDS011;13176;51.140;6.290;2023-01-25T07:50:58;31.63;;;26.73;;
25231;SDS011;13176;51.140;6.290;2023-01-25T07:53:38;32.65;;;25.73;;
25231;SDS011;13176;51.140;6.290;2023-01-25T07:56:09;29.42;;;25.38;;
25231;SDS011;13176;51.140;6.290;2023-01-25T07:58:37;28.50;;;25.55;;
25231;SDS011;13176;51.140;6.290;2023-01-25T08:01:08;32.50;;;25.70;;
25231;SDS011;13176;51.140;6.290;2023-01-25T08:03:35;28.95;;;25.83;;
25231;SDS011;13176;51.140;6.290;2023-01-25T08:06:02;29.42;;;24.75;;
25231;SDS011;13176;51.140;6.290;2023-01-25T08:08:31;30.00;;;26.77;;
25231;SDS011;13176;51.140;6.290;2023-01-25T08:11:00;30.05;;;26.55;;
25231;SDS011;13176;51.140;6.290;2023-01-25T08:13:31;29.52;;;26.50;;
25231;SDS011;13176;51.140;6.290;2023-01-25T08:15:58;29.83;;;26.67;;
25231;SDS011;13176;51.140;6.290;2023-01-25T08:18:24;30.58;;;27.27;;
25231;SDS011;13176;51.140;6.290;2023-01-25T08:20:50;35.15;;;27.38;;
25231;SDS011;13176;51.140;6.290;2023-01-25T08:23:24;29.98;;;25.45;;
25231;SDS011;13176;51.140;6.290;2023-01-25T08:25:51;30.30;;;24.42;;
25231;SDS011;13176;51.140;6.290;2023-01-25T08:28:18;29.85;;;26.52;;
25231;SDS011;13176;51.140;6.290;2023-01-25T08:30:45;30.17;;;26.10;;
25231;SDS011;13176;51.140;6.290;2023-01-25T08:33:22;29.05;;;24.73;;
25231;SDS011;13176;51.140;6.290;2023-01-25T08:35:55;31.65;;;25.55;;
25231;SDS011;13176;51.140;6.290;2023-01-25T08:38:22;29.90;;;26.13;;
25231;SDS011;13176;51.140;6.290;2023-01-25T08:40:49;30.63;;;26.40;;
25231;SDS011;13176;51.140;6.290;2023-01-25T08:43:15;32.17;;;27.15;;
25231;SDS011;13176;51.140;6.290;2023-01-25T08:45:42;34.05;;;27.58;;
25231;SDS011;13176;51.140;6.290;2023-01-25T08:48:08;33.33;;;28.13;;
25231;SDS011;13176;51.140;6.290;2023-01-25T08:50:35;29.48;;;26.25;;
25231;SDS011;13176;51.140;6.290;2023-01-25T08:53:02;32.33;;;27.25;;
25231;SDS011;13176;51.140;6.290;2023-01-25T08:55:28;33.90;;;28.63;;
25231;SDS011;13176;51.140;6.290;2023-01-25T08:57:54;32.67;;;28.05;;
25231;SDS011;13176;51.140;6.290;2023-01-25T09:00:22;34.70;;;28.15;;
25231;SDS011;13176;51.140;6.290;2023-01-25T09:02:49;34.60;;;28.25;;
25231;SDS011;13176;51.140;6.290;2023-01-25T09:05:15;30.63;;;27.33;;
25231;SDS011;13176;51.140;6.290;2023-01-25T09:07:42;30.77;;;27.33;;
25231;SDS011;13176;51.140;6.290;2023-01-25T09:10:11;32.13;;;28.15;;
25231;SDS011;13176;51.140;6.290;2023-01-25T09:12:38;33.75;;;28.45;;
25231;SDS011;13176;51.140;6.290;2023-01-25T09:15:04;31.55;;;28.05;;
25231;SDS011;13176;51.140;6.290;2023-01-25T09:17:34;33.10;;;28.65;;
25231;SDS011;13176;51.140;6.290;2023-01-25T09:20:15;32.88;;;28.48;;
25231;SDS011;13176;51.140;6.290;2023-01-25T09:22:45;30.92;;;26.58;;
25231;SDS011;13176;51.140;6.290;2023-01-25T09:25:12;33.38;;;28.67;;
25231;SDS011;13176;51.140;6.290;2023-01-25T09:27:39;36.72;;;29.73;;
25231;SDS011;13176;51.140;6.290;2023-01-25T09:30:07;35.03;;;29.52;;
25231;SDS011;13176;51.140;6.290;2023-01-25T09:32:44;37.72;;;29.90;;
25231;SDS011;13176;51.140;6.290;2023-01-25T09:35:11;35.47;;;29.80;;
25231;SDS011;13176;51.140;6.290;2023-01-25T09:37:37;35.88;;;29.45;;
25231;SDS011;13176;51.140;6.290;2023-01-25T09:40:04;38.45;;;30.60;;
25231;SDS011;13176;51.140;6.290;2023-01-25T09:45:35;34.78;;;28.30;;
25231;SDS011;13176;51.140;6.290;2023-01-25T09:50:57;39.25;;;32.50;;
25231;SDS011;13176;51.140;6.290;2023-01-25T09:53:34;38.20;;;32.47;;
25231;SDS011;13176;51.140;6.290;2023-01-25T09:56:08;39.70;;;31.55;;
25231;SDS011;13176;51.140;6.290;2023-01-25T09:58:50;37.28;;;31.42;;
25231;SDS011;13176;51.140;6.290;2023-01-25T10:04:26;37.72;;;29.67;;
25231;SDS011;13176;51.140;6.290;2023-01-25T10:07:18;40.53;;;31.42;;
25231;SDS011;13176;51.140;6.290;2023-01-25T10:10:31;42.00;;;31.55;;
25231;SDS011;13176;51.140;6.290;2023-01-25T10:12:59;38.67;;;30.58;;
25231;SDS011;13176;51.140;6.290;2023-01-25T10:15:32;44.10;;;34.53;;
25231;SDS011;13176;51.140;6.290;2023-01-25T10:18:06;40.08;;;31.63;;
25231;SDS011;13176;51.140;6.290;2023-01-25T10:21:04;39.63;;;30.83;;
25231;SDS011;13176;51.140;6.290;2023-01-25T10:26:43;40.97;;;32.78;;
25231;SDS011;13176;51.140;6.290;2023-01-25T10:31:52;41.63;;;33.13;;
25231;SDS011;13176;51.140;6.290;2023-01-25T10:37:22;37.33;;;30.30;;
25231;SDS011;13176;51.140;6.290;2023-01-25T10:39:58;42.05;;;33.92;;
25231;SDS011;13176;51.140;6.290;2023-01-25T10:42:30;41.05;;;33.45;;
25231;SDS011;13176;51.140;6.290;2023-01-25T10:45:10;41.45;;;33.22;;
25231;SDS011;13176;51.140;6.290;2023-01-25T10:47:38;39.80;;;32.47;;
25231;SDS011;13176;51.140;6.290;2023-01-25T10:50:08;40.75;;;32.83;;
25231;SDS011;13176;51.140;6.290;2023-01-25T10:52:35;42.78;;;33.20;;
25231;SDS011;13176;51.140;6.290;2023-01-25T10:55:16;41.75;;;34.28;;
25231;SDS011;13176;51.140;6.290;2023-01-25T10:57:44;45.15;;;35.13;;
25231;SDS011;13176;51.140;6.290;2023-01-25T11:02:55;45.83;;;35.70;;
25231;SDS011;13176;51.140;6.290;2023-01-25T11:05:26;43.75;;;34.80;;
25231;SDS011;13176;51.140;6.290;2023-01-25T11:07:56;41.47;;;34.10;;
25231;SDS011;13176;51.140;6.290;2023-01-25T11:15:45;42.58;;;33.85;;
25231;SDS011;13176;51.140;6.290;2023-01-25T11:18:18;44.40;;;35.88;;
25231;SDS011;13176;51.140;6.290;2023-01-25T11:23:29;44.80;;;35.55;;
25231;SDS011;13176;51.140;6.290;2023-01-25T11:26:11;45.40;;;34.88;;
25231;SDS011;13176;51.140;6.290;2023-01-25T11:28:45;42.20;;;32.03;;
25231;SDS011;13176;51.140;6.290;2023-01-25T11:31:16;41.58;;;34.33;;
25231;SDS011;13176;51.140;6.290;2023-01-25T11:33:49;45.70;;;35.25;;
25231;SDS011;13176;51.140;6.290;2023-01-25T11:36:19;45.15;;;36.13;;
25231;SDS011;13176;51.140;6.290;2023-01-25T11:39:00;51.03;;;34.92;;
25231;SDS011;13176;51.140;6.290;2023-01-25T11:41:52;45.15;;;35.05;;
25231;SDS011;13176;51.140;6.290;2023-01-25T11:52:57;41.80;;;33.95;;
25231;SDS011;13176;51.140;6.290;2023-01-25T12:07:06;41.60;;;31.92;;
25231;SDS011;13176;51.140;6.290;2023-01-25T12:15:31;40.72;;;31.88;;
25231;SDS011;13176;51.140;6.290;2023-01-25T12:26:10;46.58;;;31.25;;
25231;SDS011;13176;51.140;6.290;2023-01-25T12:28:49;45.08;;;33.25;;
25231;SDS011;13176;51.140;6.290;2023-01-25T12:31:24;38.80;;;31.15;;
25231;SDS011;13176;51.140;6.290;2023-01-25T12:34:03;45.08;;;33.35;;
25231;SDS011;13176;51.140;6.290;2023-01-25T12:36:48;41.75;;;32.55;;
25231;SDS011;13176;51.140;6.290;2023-01-25T12:39:25;42.50;;;33.28;;
25231;SDS011;13176;51.140;6.290;2023-01-25T12:44:54;44.28;;;34.65;;
25231;SDS011;13176;51.140;6.290;2023-01-25T12:50:40;42.22;;;32.28;;
25231;SDS011;13176;51.140;6.290;2023-01-25T12:53:29;41.53;;;33.28;;
25231;SDS011;13176;51.140;6.290;2023-01-25T12:56:05;42.92;;;34.00;;
25231;SDS011;13176;51.140;6.290;2023-01-25T13:01:20;41.15;;;31.95;;
25231;SDS011;13176;51.140;6.290;2023-01-25T13:04:08;43.55;;;33.67;;
25231;SDS011;13176;51.140;6.290;2023-01-25T13:07:25;45.70;;;34.58;;
25231;SDS011;13176;51.140;6.290;2023-01-25T13:12:23;40.30;;;33.35;;
25231;SDS011;13176;51.140;6.290;2023-01-25T13:14:49;40.80;;;33.03;;
25231;SDS011;13176;51.140;6.290;2023-01-25T13:19:59;41.30;;;33.47;;
25231;SDS011;13176;51.140;6.290;2023-01-25T13:25:18;45.95;;;35.17;;
25231;SDS011;13176;51.140;6.290;2023-01-25T13:27:46;44.42;;;35.80;;
25231;SDS011;13176;51.140;6.290;2023-01-25T13:30:32;42.90;;;35.20;;
25231;SDS011;13176;51.140;6.290;2023-01-25T13:33:03;42.00;;;34.22;;
25231;SDS011;13176;51.140;6.290;2023-01-25T13:35:33;43.95;;;34.50;;
25231;SDS011;13176;51.140;6.290;2023-01-25T13:43:03;46.55;;;36.17;;
25231;SDS011;13176;51.140;6.290;2023-01-25T13:45:46;44.30;;;34.33;;
25231;SDS011;13176;51.140;6.290;2023-01-25T13:48:20;42.08;;;33.63;;
25231;SDS011;13176;51.140;6.290;2023-01-25T13:50:56;45.30;;;34.13;;
25231;SDS011;13176;51.140;6.290;2023-01-25T13:53:26;43.20;;;33.72;;
25231;SDS011;13176;51.140;6.290;2023-01-25T13:55:58;46.08;;;32.92;;
25231;SDS011;13176;51.140;6.290;2023-01-25T13:58:35;40.00;;;29.08;;
25231;SDS011;13176;51.140;6.290;2023-01-25T14:01:14;38.03;;;30.20;;
25231;SDS011;13176;51.140;6.290;2023-01-25T14:03:45;45.47;;;31.38;;
25231;SDS011;13176;51.140;6.290;2023-01-25T14:06:24;41.92;;;32.65;;
25231;SDS011;13176;51.140;6.290;2023-01-25T14:08:53;43.83;;;32.83;;
25231;SDS011;13176;51.140;6.290;2023-01-25T14:11:23;41.65;;;30.88;;
25231;SDS011;13176;51.140;6.290;2023-01-25T14:14:15;39.10;;;29.70;;
25231;SDS011;13176;51.140;6.290;2023-01-25T14:19:35;34.10;;;26.20;;
25231;SDS011;13176;51.140;6.290;2023-01-25T14:22:24;34.85;;;28.13;;
25231;SDS011;13176;51.140;6.290;2023-01-25T14:27:47;36.17;;;28.60;;
25231;SDS011;13176;51.140;6.290;2023-01-25T14:30:17;43.43;;;30.93;;
25231;SDS011;13176;51.140;6.290;2023-01-25T14:32:53;37.58;;;29.73;;
25231;SDS011;13176;51.140;6.290;2023-01-25T14:35:34;35.25;;;27.92;;
25231;SDS011;13176;51.140;6.290;2023-01-25T14:40:57;37.00;;;29.70;;
25231;SDS011;13176;51.140;6.290;2023-01-25T14:43:27;34.72;;;29.27;;
25231;SDS011;13176;51.140;6.290;2023-01-25T14:45:54;40.17;;;30.15;;
25231;SDS011;13176;51.140;6.290;2023-01-25T14:48:33;42.85;;;30.55;;
25231;SDS011;13176;51.140;6.290;2023-01-25T14:51:04;37.13;;;28.50;;
25231;SDS011;13176;51.140;6.290;2023-01-25T14:53:45;40.03;;;27.67;;
25231;SDS011;13176;51.140;6.290;2023-01-25T14:56:31;36.63;;;29.30;;
25231;SDS011;13176;51.140;6.290;2023-01-25T14:59:00;32.83;;;26.70;;
25231;SDS011;13176;51.140;6.290;2023-01-25T15:01:29;39.40;;;28.80;;
25231;SDS011;13176;51.140;6.290;2023-01-25T15:04:08;34.00;;;26.35;;
25231;SDS011;13176;51.140;6.290;2023-01-25T15:06:50;35.55;;;27.15;;
25231;SDS011;13176;51.140;6.290;2023-01-25T15:12:26;35.72;;;26.23;;
25231;SDS011;13176;51.140;6.290;2023-01-25T15:14:54;33.83;;;25.98;;
25231;SDS011;13176;51.140;6.290;2023-01-25T15:22:56;38.63;;;26.88;;
25231;SDS011;13176;51.140;6.290;2023-01-25T15:25:25;34.60;;;25.10;;
25231;SDS011;13176;51.140;6.290;2023-01-25T15:27:51;32.80;;;24.98;;
25231;SDS011;13176;51.140;6.290;2023-01-25T15:30:18;36.00;;;25.98;;
25231;SDS011;13176;51.140;6.290;2023-01-25T15:32:44;34.10;;;25.42;;
25231;SDS011;13176;51.140;6.290;2023-01-25T15:35:12;39.30;;;27.55;;
25231;SDS011;13176;51.140;6.290;2023-01-25T15:37:40;37.65;;;28.05;;
25231;SDS011;13176;51.140;6.290;2023-01-25T15:40:07;40.53;;;29.58;;
25231;SDS011;13176;51.140;6.290;2023-01-25T15:42:35;36.92;;;27.17;;
25231;SDS011;13176;51.140;6.290;2023-01-25T15:45:02;37.72;;;27.58;;
25231;SDS011;13176;51.140;6.290;2023-01-25T15:47:31;37.40;;;29.00;;
25231;SDS011;13176;51.140;6.290;2023-01-25T15:49:58;39.47;;;28.50;;
25231;SDS011;13176;51.140;6.290;2023-01-25T15:52:24;38.20;;;28.40;;
25231;SDS011;13176;51.140;6.290;2023-01-25T15:54:51;38.05;;;28.52;;
25231;SDS011;13176;51.140;6.290;2023-01-25T15:57:28;43.80;;;28.75;;
25231;SDS011;13176;51.140;6.290;2023-01-25T15:59:58;43.50;;;30.42;;
25231;SDS011;13176;51.140;6.290;2023-01-25T16:02:27;42.72;;;29.33;;
25231;SDS011;13176;51.140;6.290;2023-01-25T16:04:53;37.00;;;27.05;;
25231;SDS011;13176;51.140;6.290;2023-01-25T16:07:27;34.25;;;25.38;;
25231;SDS011;13176;51.140;6.290;2023-01-25T16:09:54;39.63;;;26.48;;
25231;SDS011;13176;51.140;6.290;2023-01-25T16:12:20;38.70;;;26.25;;
25231;SDS011;13176;51.140;6.290;2023-01-25T16:14:47;35.92;;;27.58;;
25231;SDS011;13176;51.140;6.290;2023-01-25T16:17:17;43.53;;;26.90;;
25231;SDS011;13176;51.140;6.290;2023-01-25T16:19:45;35.95;;;27.13;;
25231;SDS011;13176;51.140;6.290;2023-01-25T16:22:13;35.90;;;27.73;;
25231;SDS011;13176;51.140;6.290;2023-01-25T16:24:41;40.63;;;27.77;;
25231;SDS011;13176;51.140;6.290;2023-01-25T16:27:13;37.80;;;26.08;;
25231;SDS011;13176;51.140;6.290;2023-01-25T16:29:41;43.33;;;28.63;;
25231;SDS011;13176;51.140;6.290;2023-01-25T16:32:08;39.85;;;28.50;;